Latest Coastal Weather Observations for Yarram Airport

IDV60701

Issued at 9:21 am EDT Saturday 25 November 2017 (issued every 10 minutes, with the page automatically refreshed every 10 minutes)

About coastal observations | Map of coastal stations | Coastal observations for VIC | Marine services | Other Formats
Station Details ID: 085151 Name: YARRAM AIRPORT Lat: -38.56 Lon: 146.75 Height: 17.9 m
Data from the previous 72 hours. | See also: Recent months at Yarram Airport
Date/Time
EDT
Temp
°C
Wind Pressure Rain since
9am
mm
Weather Cloud Vis
km
Sea
Height
m
Swell
Dir  Spd
kts
Gust
kts
hPa Trend Height
m
Period
s
Dir
25/09:00am 24.2 WNW 1 4 1015.5 - 0.4 - - - - - - -
25/08:30am 23.8 CALM 0 1 1015.3 - 0.4 - - - - - - -
25/08:00am 23.0 CALM 0 3 1015.1 - 0.4 - - - - - - -
25/07:30am 21.3 CALM 0 2 1015.0 - 0.4 - - - - - - -
25/07:00am 19.3 SSW 2 4 1014.7 - 0.4 - - - - - - -
25/06:30am 19.5 WNW 6 7 1014.5 - 0.4 - - - - - - -
25/06:00am 18.7 NNW 1 6 1014.1 - 0.4 - - - - - - -
25/05:30am 18.9 SW 4 6 1013.8 - 0.4 - - - - - - -
25/05:00am 19.1 SSE 6 7 1013.4 - 0.4 - - - - - - -
25/04:30am 20.6 ESE 5 6 1013.0 - 0.4 - - - - - - -
25/04:00am 21.9 NW 5 7 1012.7 - 0.4 - - - - - - -
25/03:30am 22.2 N 13 18 1013.0 - 0.4 - - - - - - -
25/03:00am 20.1 NNE 14 17 1013.2 - 0.4 Recent precip. - - - - - -
25/02:30am 19.6 SE 3 6 1012.6 - 0.4 - - - - - - -
25/02:00am 18.9 NNE 7 9 1013.4 - 0.2 - - - - - - -
25/01:30am 18.4 NE 5 9 1013.4 - 0.0 - - - - - - -
25/01:00am 18.6 NE 3 4 1013.8 - 0.0 - - - - - - -
25/12:30am 19.1 NE 4 5 1014.0 - 0.0 - - - - - - -
25/12:00am 18.6 CALM 0 0 1014.4 - 0.0 - - - - - - -
 
Date/Time
EDT
Temp
°C
Wind Pressure Rain since
9am
mm
Weather Cloud Vis
km
Sea
Height
m
Swell
Dir  Spd
kts
Gust
kts
hPa Trend Height
m
Period
s
Dir
24/11:30pm 19.6 CALM 0 0 1014.7 - 0.0 - - - - - - -
24/11:00pm 20.2 CALM 0 2 1014.8 - 0.0 - - - - - - -
24/10:30pm 21.0 ENE 6 7 1014.6 - 0.0 - - - - - - -
24/10:00pm 21.5 E 4 5 1014.5 - 0.0 - - - - - - -
24/09:30pm 22.0 NE 4 5 1014.2 - 0.0 - - - - - - -
24/09:00pm 22.6 NE 4 5 1014.1 - 0.0 - - - - - - -
24/08:30pm 22.4 NNE 4 7 1014.0 - 0.0 - - - - - - -
24/08:00pm 23.8 CALM 0 0 1013.7 - 0.0 - - - - - - -
24/07:30pm 25.2 NE 3 5 1013.5 - 0.0 - - - - - - -
24/07:00pm 26.2 NE 6 8 1013.3 - 0.0 - - - - - - -
24/06:30pm 26.2 NE 9 12 1013.2 - 0.0 - - - - - - -
24/06:00pm 25.5 NE 11 15 1013.3 - 0.0 - - - - - - -
24/05:30pm 24.8 NE 10 16 1013.3 - 0.0 - - - - - - -
24/05:00pm 25.7 NE 7 9 1013.0 - 0.0 - - - - - - -
24/04:30pm 26.5 ESE 3 6 1013.0 - 0.0 - - - - - - -
24/04:00pm 25.9 S 4 8 1013.2 - 0.0 - - - - - - -
24/03:30pm 25.7 SSW 7 11 1013.1 - 0.0 - - - - - - -
24/03:00pm 25.6 SSW 11 16 1013.2 - 0.0 - - - - - - -
24/02:30pm 27.5 WSW 10 13 1013.4 - 0.0 - - - - - - -
24/02:00pm 28.7 SSW 10 14 1013.4 - 0.0 - - - - - - -
24/01:30pm 30.1 SSE 6 11 1013.1 - 0.0 - - - - - - -
24/01:00pm 30.7 E 1 6 1013.2 - 0.0 - - - - - - -
24/12:30pm 28.6 E 1 5 1013.3 - 0.0 - - - - - - -
24/12:00pm 28.0 SE 7 11 1013.4 - 0.0 - - - - - - -
24/11:30am 28.1 SE 6 13 1013.3 - 0.0 - - - - - - -
24/11:00am 28.7 SSW 4 9 1013.3 - 0.0 - - - - - - -
24/10:30am 26.9 E 1 6 1013.2 - 0.0 - - - - - - -
24/10:00am 25.4 NE 1 5 1013.2 - 0.0 - - - - - - -
24/09:30am 23.1 CALM 0 3 1013.1 - 0.0 - - - - - - -
24/09:00am 21.5 N 1 4 1013.2 - 0.0 - - - - - - -
24/08:30am 20.3 CALM 0 0 1013.1 - 0.0 - - - - - - -
24/08:00am 17.9 W 1 4 1013.1 - 0.0 - - - - - - -
24/07:30am 17.0 NW 1 4 1012.8 - 0.0 - - - - - - -
24/07:00am 16.3 WNW 4 5 1012.5 - 0.0 - - - - - - -
24/06:30am 14.7 CALM 0 0 1012.2 - 0.0 - - - - - - -
24/06:00am 13.6 NW 1 4 1012.0 - 0.0 - - - - - - -
24/05:30am 13.2 NW 3 4 1011.5 - 0.0 - - - - - - -
24/05:00am 12.7 NNW 3 4 1011.3 - 0.0 - - - - - - -
24/04:30am 11.4 WNW 5 8 1011.0 - 0.0 - - - - - - -
24/04:00am 11.2 NW 4 5 1010.9 - 0.0 - - - - - - -
24/03:30am 10.7 NW 3 5 1010.8 - 0.0 - - - - - - -
24/03:00am 11.6 CALM 0 0 1010.7 - 0.0 - - - - - - -
24/02:30am 11.7 CALM 0 0 1010.6 - 0.0 - - - - - - -
24/02:00am 12.2 CALM 0 0 1010.4 - 0.0 - - - - - - -
24/01:30am 14.3 SE 5 8 1010.3 - 0.0 - - - - - - -
24/01:00am 13.7 W 1 3 1010.4 - 0.0 - - - - - - -
24/12:30am 14.7 NW 4 5 1010.6 - 0.0 - - - - - - -
24/12:00am 14.8 WNW 4 4 1010.7 - 0.0 - - - - - - -
 
Date/Time
EDT
Temp
°C
Wind Pressure Rain since
9am
mm
Weather Cloud Vis
km
Sea
Height
m
Swell
Dir  Spd
kts
Gust
kts
hPa Trend Height
m
Period
s
Dir
23/11:30pm 15.3 SW 4 4 1010.6 - 0.0 - - - - - - -
23/11:00pm 16.2 W 4 5 1010.5 - 0.0 - - - - - - -
23/10:30pm 16.6 W 4 4 1010.6 - 0.0 - - - - - - -
23/10:00pm 16.4 W 2 6 1010.6 - 0.0 - - - - - - -
23/09:30pm 17.4 CALM 0 0 1010.5 - 0.0 - - - - - - -
23/09:00pm 18.9 CALM 0 0 1010.1 - 0.0 - - - - - - -
23/08:30pm 22.1 E 2 4 1010.0 - 0.0 - - - - - - -
23/08:00pm 24.2 ENE 1 4 1009.9 - 0.0 - - - - - - -
23/07:30pm 25.4 NNE 5 7 1009.9 - 0.0 - - - - - - -
23/07:00pm 26.3 NNE 6 10 1009.9 - 0.0 - - - - - - -
23/06:30pm 27.0 ENE 4 7 1010.1 - 0.0 - - - - - - -
23/06:00pm 25.9 ENE 5 7 1010.2 - 0.0 - - - - - - -
23/05:30pm 25.1 ESE 8 12 1009.7 - 0.0 - - - - - - -
23/05:00pm 25.4 SE 9 13 1009.5 - 0.0 - - - - - - -
23/04:30pm 25.5 S 8 11 1009.5 - 0.0 - - - - - - -
23/04:00pm 25.7 S 10 14 1009.3 - 0.0 - - - - - - -
23/03:30pm 26.5 SSE 10 13 1009.3 - 0.0 - - - - - - -
23/03:00pm 27.1 S 10 13 1009.3 - 0.0 - - - - - - -
23/02:30pm 27.0 SSE 9 13 1009.7 - 0.0 - - - - - - -
23/02:00pm 26.7 SSE 9 13 1010.1 - 0.0 - - - - - - -
23/01:30pm 26.0 SSE 9 12 1010.3 - 0.0 - - - - - - -
23/01:00pm 26.3 SSE 8 12 1010.6 - 0.0 - - - - - - -
23/12:30pm 25.5 SSE 9 13 1010.9 - 0.0 - - - - - - -
23/12:00pm 26.3 S 8 14 1011.0 - 0.0 - - - - - - -
23/11:30am 25.9 SE 8 12 1011.2 - 0.0 - - - - - - -
23/11:00am 24.9 SSE 2 6 1011.4 - 0.0 - - - - - - -
23/10:30am 22.5 S 2 6 1011.7 - 0.0 - - - - - - -
23/10:00am 20.2 W 3 6 1011.9 - 0.0 - - - - - - -
23/09:30am 17.2 WSW 4 8 1012.1 - 0.0 - - - - - - -
23/09:00am 15.8 W 4 6 1012.4 - 0.0 - - - - - - -
23/08:30am 15.0 WNW 5 6 1012.5 - 0.0 - - - - - - -
23/08:00am 14.5 WNW 5 7 1012.5 - 0.0 - - - - - - -
23/07:30am 14.6 W 6 7 1012.3 - 0.0 - - - - - - -
23/07:00am 14.2 WNW 4 5 1012.2 - 0.0 - - - - - - -
23/06:30am 14.0 WNW 5 6 1012.2 - 0.0 - - - - - - -
23/06:00am 13.8 WNW 4 5 1011.9 - 0.0 - - - - - - -
23/05:30am 14.0 WNW 1 5 1011.8 - 0.0 - - - - - - -
23/05:00am 12.5 NW 1 3 1011.9 - 0.0 - - - - - - -
23/04:30am 11.1 W 1 3 1011.8 - 0.0 - - - - - - -
23/04:00am 9.4 W 3 4 1012.0 - 0.0 - - - - - - -
23/03:30am 9.2 WSW 2 3 1012.1 - 0.0 - - - - - - -
23/03:00am 9.8 WSW 2 4 1012.5 - 0.0 - - - - - - -
23/02:30am 9.6 WNW 3 4 1012.8 - 0.0 - - - - - - -
23/02:00am 9.7 WNW 2 4 1013.1 - 0.0 - - - - - - -
23/01:30am 8.8 NW 4 5 1013.5 - 0.0 - - - - - - -
23/01:00am 9.2 CALM 0 0 1013.8 - 0.0 - - - - - - -
23/12:30am 9.8 CALM 0 0 1014.1 - 0.0 - - - - - - -
23/12:00am 9.8 CALM 0 0 1014.3 - 0.0 - - - - - - -
 
Date/Time
EDT
Temp
°C
Wind Pressure Rain since
9am
mm
Weather Cloud Vis
km
Sea
Height
m
Swell
Dir  Spd
kts
Gust
kts
hPa Trend Height
m
Period
s
Dir
22/11:30pm 11.8 CALM 0 0 1014.5 - 0.0 - - - - - - -
22/11:00pm 11.4 CALM 0 0 1014.9 - 0.0 - - - - - - -
22/10:30pm 13.1 CALM 0 3 1015.2 - 0.0 - - - - - - -
22/10:00pm 14.3 E 3 4 1015.4 - 0.0 - - - - - - -
22/09:30pm 15.3 E 4 4 1015.5 - 0.0 - - - - - - -
22/09:00pm 15.5 ESE 5 6 1015.4 - 0.0 - - - - - - -
22/08:30pm 16.8 E 6 9 1015.3 - 0.0 - - - - - - -
22/08:00pm 17.8 E 8 10 1015.1 - 0.0 - - - - - - -
22/07:30pm 18.8 E 9 14 1015.1 - 0.0 - - - - - - -
22/07:00pm 19.6 E 10 14 1015.1 - 0.0 - - - - - - -
22/06:30pm 20.4 E 9 14 1014.9 - 0.0 - - - - - - -
22/06:00pm 21.1 E 9 15 1014.8 - 0.0 - - - - - - -
22/05:30pm 21.5 E 11 16 1014.9 - 0.0 - - - - - - -
22/05:00pm 22.4 E 9 14 1015.0 - 0.0 - - - - - - -
22/04:30pm 22.6 E 12 17 1015.1 - 0.0 - - - - - - -
22/04:00pm 23.0 ESE 11 16 1015.2 - 0.0 - - - - - - -
22/03:30pm 22.8 ESE 11 16 1015.5 - 0.0 - - - - - - -
22/03:00pm 22.7 ESE 11 21 1015.9 - 0.0 - - - - - - -
22/02:30pm 23.5 E 10 15 1016.1 - 0.0 - - - - - - -
22/02:00pm 22.7 ESE 11 16 1016.4 - 0.0 - - - - - - -
22/01:30pm 22.9 ESE 11 15 1016.4 - 0.0 - - - - - - -
22/01:00pm 22.4 SE 10 13 1016.8 - 0.0 - - - - - - -
22/12:30pm 22.6 ESE 9 13 1017.0 - 0.0 - - - - - - -
22/12:00pm 22.7 SE 10 14 1017.1 - 0.0 - - - - - - -
22/11:30am 23.1 SE 7 11 1017.2 - 0.0 - - - - - - -
22/11:00am 22.6 ESE 6 11 1017.5 - 0.0 - - - - - - -
22/10:30am 21.9 ESE 6 9 1017.8 - 0.0 - - - - - - -
22/10:00am 20.6 ESE 4 9 1018.0 - 0.0 - - - - - - -
22/09:30am 19.7 ESE 4 8 1018.4 - 0.0 - - - - - - -

Other Formats:

Comma delimited format used in spreadsheet applications
http://www.bom.gov.au/fwo/IDV60701/IDV60701.95890.axf

JavaScript Object Notation format (JSON) in row-major order
http://www.bom.gov.au/fwo/IDV60701/IDV60701.95890.json